sensor_id;sensor_type;location;lat;lon;timestamp;pressure;altitude;pressure_sealevel;temperature;humidity
46942;BME280;32676;52.630;4.896;2023-11-18T00:00:20;99233.25;;;5.26;87.36
46942;BME280;32676;52.630;4.896;2023-11-18T00:02:46;99256.44;;;5.32;87.49
46942;BME280;32676;52.630;4.896;2023-11-18T00:05:13;99260.78;;;5.33;87.79
46942;BME280;32676;52.630;4.896;2023-11-18T00:07:42;99275.41;;;5.36;87.87
46942;BME280;32676;52.630;4.896;2023-11-18T00:10:09;99280.63;;;5.36;87.92
46942;BME280;32676;52.630;4.896;2023-11-18T00:12:36;99282.44;;;5.34;87.92
46942;BME280;32676;52.630;4.896;2023-11-18T00:15:06;99290.09;;;5.38;88.06
46942;BME280;32676;52.630;4.896;2023-11-18T00:17:34;99288.38;;;5.37;88.14
46942;BME280;32676;52.630;4.896;2023-11-18T00:20:00;99289.22;;;5.38;88.12
46942;BME280;32676;52.630;4.896;2023-11-18T00:22:28;99288.38;;;5.37;88.10
46942;BME280;32676;52.630;4.896;2023-11-18T00:24:56;99304.03;;;5.37;88.15
46942;BME280;32676;52.630;4.896;2023-11-18T00:27:22;99302.22;;;5.39;88.29
46942;BME280;32676;52.630;4.896;2023-11-18T00:29:50;99302.22;;;5.39;88.34
46942;BME280;32676;52.630;4.896;2023-11-18T00:32:18;99302.22;;;5.39;88.28
46942;BME280;32676;52.630;4.896;2023-11-18T00:34:44;99312.63;;;5.39;88.39
46942;BME280;32676;52.630;4.896;2023-11-18T00:37:11;99290.22;;;5.35;88.10
46942;BME280;32676;52.630;4.896;2023-11-18T00:39:37;99279.88;;;5.32;88.28
46942;BME280;32676;52.630;4.896;2023-11-18T00:42:05;99278.22;;;5.31;88.20
46942;BME280;32676;52.630;4.896;2023-11-18T00:44:32;99261.75;;;5.29;88.18
46942;BME280;32676;52.630;4.896;2023-11-18T00:46:58;99255.03;;;5.24;88.28
46942;BME280;32676;52.630;4.896;2023-11-18T00:49:26;99259.28;;;5.26;88.25
46942;BME280;32676;52.630;4.896;2023-11-18T00:51:52;99228.47;;;5.14;88.26
46942;BME280;32676;52.630;4.896;2023-11-18T00:54:18;99246.38;;;5.23;88.17
46942;BME280;32676;52.630;4.896;2023-11-18T00:56:45;99244.03;;;5.15;88.19
46942;BME280;32676;52.630;4.896;2023-11-18T00:59:13;99262.78;;;5.25;88.21
46942;BME280;32676;52.630;4.896;2023-11-18T01:01:40;99266.31;;;5.24;88.25
46942;BME280;32676;52.630;4.896;2023-11-18T01:04:07;99272.25;;;5.28;88.11
46942;BME280;32676;52.630;4.896;2023-11-18T01:06:34;99262.91;;;5.22;88.33
46942;BME280;32676;52.630;4.896;2023-11-18T01:09:00;99275.69;;;5.28;88.38
46942;BME280;32676;52.630;4.896;2023-11-18T01:11:27;99268.97;;;5.23;88.26
46942;BME280;32676;52.630;4.896;2023-11-18T01:13:54;99281.69;;;5.30;88.28
46942;BME280;32676;52.630;4.896;2023-11-18T01:16:22;99295.50;;;5.32;88.54
46942;BME280;32676;52.630;4.896;2023-11-18T01:18:49;99292.22;;;5.27;88.52
46942;BME280;32676;52.630;4.896;2023-11-18T01:21:15;99320.53;;;5.36;88.56
46942;BME280;32676;52.630;4.896;2023-11-18T01:23:42;99319.69;;;5.36;88.86
46942;BME280;32676;52.630;4.896;2023-11-18T01:26:10;99334.31;;;5.40;88.64
46942;BME280;32676;52.630;4.896;2023-11-18T01:28:37;99339.47;;;5.42;88.76
46942;BME280;32676;52.630;4.896;2023-11-18T01:31:06;99348.16;;;5.42;88.80
46942;BME280;32676;52.630;4.896;2023-11-18T01:33:36;99352.53;;;5.40;88.63
46942;BME280;32676;52.630;4.896;2023-11-18T01:36:06;99357.69;;;5.42;88.83
46942;BME280;32676;52.630;4.896;2023-11-18T01:38:33;99376.63;;;5.47;88.77
46942;BME280;32676;52.630;4.896;2023-11-18T01:41:00;99378.34;;;5.48;88.69
46942;BME280;32676;52.630;4.896;2023-11-18T01:43:27;99388.63;;;5.51;88.76
46942;BME280;32676;52.630;4.896;2023-11-18T01:45:53;99402.47;;;5.53;88.71
46942;BME280;32676;52.630;4.896;2023-11-18T01:48:20;99393.84;;;5.51;88.81
46942;BME280;32676;52.630;4.896;2023-11-18T01:50:49;99402.47;;;5.53;88.71
46942;BME280;32676;52.630;4.896;2023-11-18T01:53:16;99404.19;;;5.54;88.63
46942;BME280;32676;52.630;4.896;2023-11-18T01:55:43;99420.56;;;5.57;88.77
46942;BME280;32676;52.630;4.896;2023-11-18T01:58:11;99421.41;;;5.58;88.89
46942;BME280;32676;52.630;4.896;2023-11-18T02:00:41;99421.41;;;5.58;88.73
46942;BME280;32676;52.630;4.896;2023-11-18T02:03:07;99435.22;;;5.60;88.60
46942;BME280;32676;52.630;4.896;2023-11-18T02:05:34;99429.13;;;5.61;88.70
46942;BME280;32676;52.630;4.896;2023-11-18T02:08:03;99433.53;;;5.59;88.50
46942;BME280;32676;52.630;4.896;2023-11-18T02:10:33;99442.19;;;5.60;88.50
46942;BME280;32676;52.630;4.896;2023-11-18T02:13:06;99449.06;;;5.62;88.64
46942;BME280;32676;52.630;4.896;2023-11-18T02:15:33;99443.84;;;5.62;88.49
46942;BME280;32676;52.630;4.896;2023-11-18T02:18:02;99442.38;;;5.55;88.47
46942;BME280;32676;52.630;4.896;2023-11-18T02:20:30;99472.34;;;5.67;88.60
46942;BME280;32676;52.630;4.896;2023-11-18T02:22:57;99459.50;;;5.62;88.50
46942;BME280;32676;52.630;4.896;2023-11-18T02:25:27;99477.47;;;5.70;88.49
46942;BME280;32676;52.630;4.896;2023-11-18T02:27:55;99475.69;;;5.70;88.47
46942;BME280;32676;52.630;4.896;2023-11-18T02:30:22;99483.63;;;5.67;88.49
46942;BME280;32676;52.630;4.896;2023-11-18T02:32:55;99475.75;;;5.69;88.54
46942;BME280;32676;52.630;4.896;2023-11-18T02:35:28;99488.72;;;5.70;88.55
46942;BME280;32676;52.630;4.896;2023-11-18T02:37:57;99488.00;;;5.67;88.69
46942;BME280;32676;52.630;4.896;2023-11-18T02:40:29;99505.97;;;5.74;88.63
46942;BME280;32676;52.630;4.896;2023-11-18T02:42:58;99518.06;;;5.77;88.78
46942;BME280;32676;52.630;4.896;2023-11-18T02:45:26;99518.09;;;5.75;88.75
46942;BME280;32676;52.630;4.896;2023-11-18T02:47:53;99495.84;;;5.65;88.64
46942;BME280;32676;52.630;4.896;2023-11-18T02:50:22;99511.16;;;5.74;88.84
46942;BME280;32676;52.630;4.896;2023-11-18T02:52:49;99495.97;;;5.62;88.83
46942;BME280;32676;52.630;4.896;2023-11-18T02:55:16;99513.06;;;5.69;88.77
46942;BME280;32676;52.630;4.896;2023-11-18T02:57:42;99516.38;;;5.74;88.76
46942;BME280;32676;52.630;4.896;2023-11-18T03:00:11;99518.19;;;5.72;88.86
46942;BME280;32676;52.630;4.896;2023-11-18T03:02:43;99503.53;;;5.70;88.74
46942;BME280;32676;52.630;4.896;2023-11-18T03:05:11;99505.34;;;5.68;88.70
46942;BME280;32676;52.630;4.896;2023-11-18T03:07:37;99510.44;;;5.71;88.88
46942;BME280;32676;52.630;4.896;2023-11-18T03:10:05;99509.59;;;5.70;88.89
46942;BME280;32676;52.630;4.896;2023-11-18T03:12:36;99519.03;;;5.73;88.87
46942;BME280;32676;52.630;4.896;2023-11-18T03:15:04;99533.75;;;5.75;88.91
46942;BME280;32676;52.630;4.896;2023-11-18T03:17:32;99544.06;;;5.79;89.03
46942;BME280;32676;52.630;4.896;2023-11-18T03:19:59;99546.69;;;5.79;89.24
46942;BME280;32676;52.630;4.896;2023-11-18T03:22:25;99551.91;;;5.79;89.19
46942;BME280;32676;52.630;4.896;2023-11-18T03:24:51;99556.19;;;5.80;89.03
46942;BME280;32676;52.630;4.896;2023-11-18T03:27:18;99549.28;;;5.79;89.11
46942;BME280;32676;52.630;4.896;2023-11-18T03:29:44;99552.69;;;5.81;89.12
46942;BME280;32676;52.630;4.896;2023-11-18T03:32:11;99560.50;;;5.81;89.25
46942;BME280;32676;52.630;4.896;2023-11-18T03:34:39;99557.19;;;5.75;89.06
46942;BME280;32676;52.630;4.896;2023-11-18T03:37:05;99559.72;;;5.79;89.25
46942;BME280;32676;52.630;4.896;2023-11-18T03:39:32;99552.88;;;5.74;89.23
46942;BME280;32676;52.630;4.896;2023-11-18T03:41:58;99567.59;;;5.77;89.30
46942;BME280;32676;52.630;4.896;2023-11-18T03:44:25;99587.28;;;5.86;89.33
46942;BME280;32676;52.630;4.896;2023-11-18T03:46:51;99588.13;;;5.86;89.43
46942;BME280;32676;52.630;4.896;2023-11-18T03:49:18;99592.50;;;5.86;89.28
46942;BME280;32676;52.630;4.896;2023-11-18T03:51:46;99592.63;;;5.81;89.36
46942;BME280;32676;52.630;4.896;2023-11-18T03:54:13;99589.06;;;5.84;89.33
46942;BME280;32676;52.630;4.896;2023-11-18T03:56:39;99599.41;;;5.87;89.28
46942;BME280;32676;52.630;4.896;2023-11-18T03:59:06;99595.03;;;5.87;89.42
46942;BME280;32676;52.630;4.896;2023-11-18T04:01:32;99607.19;;;5.88;89.40
46942;BME280;32676;52.630;4.896;2023-11-18T04:03:59;99609.75;;;5.90;89.19
46942;BME280;32676;52.630;4.896;2023-11-18T04:06:26;99630.47;;;5.93;89.32
46942;BME280;32676;52.630;4.896;2023-11-18T04:08:53;99620.03;;;5.93;89.21
46942;BME280;32676;52.630;4.896;2023-11-18T04:11:20;99623.66;;;5.89;89.10
46942;BME280;32676;52.630;4.896;2023-11-18T04:13:46;99637.41;;;5.95;89.17
46942;BME280;32676;52.630;4.896;2023-11-18T04:16:14;99650.38;;;5.97;89.04
46942;BME280;32676;52.630;4.896;2023-11-18T04:18:42;99659.91;;;5.98;89.09
46942;BME280;32676;52.630;4.896;2023-11-18T04:21:09;99661.59;;;5.99;89.18
46942;BME280;32676;52.630;4.896;2023-11-18T04:23:36;99660.69;;;6.00;88.99
46942;BME280;32676;52.630;4.896;2023-11-18T04:26:05;99662.44;;;6.00;88.81
46942;BME280;32676;52.630;4.896;2023-11-18T04:28:32;99669.38;;;6.01;88.75
46942;BME280;32676;52.630;4.896;2023-11-18T04:30:59;99677.16;;;6.02;88.67
46942;BME280;32676;52.630;4.896;2023-11-18T04:33:25;99654.75;;;5.95;88.84
46942;BME280;32676;52.630;4.896;2023-11-18T04:35:52;99673.69;;;6.02;88.64
46942;BME280;32676;52.630;4.896;2023-11-18T04:38:19;99667.84;;;5.93;88.45
46942;BME280;32676;52.630;4.896;2023-11-18T04:40:45;99685.97;;;5.98;88.35
46942;BME280;32676;52.630;4.896;2023-11-18T04:43:13;99704.81;;;6.08;88.55
46942;BME280;32676;52.630;4.896;2023-11-18T04:45:40;99713.47;;;6.08;88.34
46942;BME280;32676;52.630;4.896;2023-11-18T04:48:07;99711.75;;;6.07;88.25
46942;BME280;32676;52.630;4.896;2023-11-18T04:50:34;99698.03;;;6.02;88.39
46942;BME280;32676;52.630;4.896;2023-11-18T04:53:00;99696.25;;;6.03;88.11
46942;BME280;32676;52.630;4.896;2023-11-18T04:55:27;99695.31;;;6.05;88.13
46942;BME280;32676;52.630;4.896;2023-11-18T04:57:56;99686.72;;;6.02;88.20
46942;BME280;32676;52.630;4.896;2023-11-18T05:00:24;99696.22;;;6.04;88.24
46942;BME280;32676;52.630;4.896;2023-11-18T05:02:50;99695.31;;;6.05;88.32
46942;BME280;32676;52.630;4.896;2023-11-18T05:05:17;99700.69;;;6.01;88.23
46942;BME280;32676;52.630;4.896;2023-11-18T05:07:43;99710.06;;;6.06;88.42
46942;BME280;32676;52.630;4.896;2023-11-18T05:10:10;99703.13;;;6.05;88.49
46942;BME280;32676;52.630;4.896;2023-11-18T05:12:37;99707.50;;;6.05;88.36
46942;BME280;32676;52.630;4.896;2023-11-18T05:15:06;99715.28;;;6.06;88.54
46942;BME280;32676;52.630;4.896;2023-11-18T05:17:34;99715.28;;;6.06;88.39
46942;BME280;32676;52.630;4.896;2023-11-18T05:20:01;99741.16;;;6.12;88.52
46942;BME280;32676;52.630;4.896;2023-11-18T05:22:28;99740.31;;;6.12;88.47
46942;BME280;32676;52.630;4.896;2023-11-18T05:24:56;99736.06;;;6.09;88.41
46942;BME280;32676;52.630;4.896;2023-11-18T05:27:23;99745.53;;;6.12;88.62
46942;BME280;32676;52.630;4.896;2023-11-18T05:29:50;99737.81;;;6.07;88.47
46942;BME280;32676;52.630;4.896;2023-11-18T05:32:20;99744.75;;;6.08;88.40
46942;BME280;32676;52.630;4.896;2023-11-18T05:34:49;99743.75;;;6.12;88.52
46942;BME280;32676;52.630;4.896;2023-11-18T05:37:18;99746.38;;;6.12;88.40
46942;BME280;32676;52.630;4.896;2023-11-18T05:39:45;99748.97;;;6.12;88.40
46942;BME280;32676;52.630;4.896;2023-11-18T05:42:14;99749.91;;;6.11;88.51
46942;BME280;32676;52.630;4.896;2023-11-18T05:44:41;99756.78;;;6.12;88.33
46942;BME280;32676;52.630;4.896;2023-11-18T05:47:07;99762.84;;;6.13;88.40
46942;BME280;32676;52.630;4.896;2023-11-18T05:49:36;99768.84;;;6.17;88.51
46942;BME280;32676;52.630;4.896;2023-11-18T05:52:05;99768.84;;;6.17;88.29
46942;BME280;32676;52.630;4.896;2023-11-18T05:54:32;99767.22;;;6.12;88.15
46942;BME280;32676;52.630;4.896;2023-11-18T05:56:58;99786.13;;;6.21;88.62
46942;BME280;32676;52.630;4.896;2023-11-18T05:59:25;99775.84;;;6.14;88.44
46942;BME280;32676;52.630;4.896;2023-11-18T06:01:52;99793.03;;;6.22;88.33
46942;BME280;32676;52.630;4.896;2023-11-18T06:04:18;99779.38;;;6.13;88.23
46942;BME280;32676;52.630;4.896;2023-11-18T06:06:45;99789.63;;;6.20;88.12
46942;BME280;32676;52.630;4.896;2023-11-18T06:09:13;99786.13;;;6.21;88.26
46942;BME280;32676;52.630;4.896;2023-11-18T06:11:46;99774.25;;;6.10;87.97
46942;BME280;32676;52.630;4.896;2023-11-18T06:14:12;99779.38;;;6.13;88.15
46942;BME280;32676;52.630;4.896;2023-11-18T06:16:38;99800.81;;;6.23;87.97
46942;BME280;32676;52.630;4.896;2023-11-18T06:19:06;99796.56;;;6.21;88.08
46942;BME280;32676;52.630;4.896;2023-11-18T06:21:33;99814.69;;;6.24;88.03
46942;BME280;32676;52.630;4.896;2023-11-18T06:24:00;99822.44;;;6.27;87.96
46942;BME280;32676;52.630;4.896;2023-11-18T06:26:30;99828.44;;;6.29;87.97
46942;BME280;32676;52.630;4.896;2023-11-18T06:28:57;99838.84;;;6.30;87.90
46942;BME280;32676;52.630;4.896;2023-11-18T06:31:24;99846.63;;;6.32;87.70
46942;BME280;32676;52.630;4.896;2023-11-18T06:33:51;99838.03;;;6.28;87.55
46942;BME280;32676;52.630;4.896;2023-11-18T06:36:18;99850.94;;;6.33;87.48
46942;BME280;32676;52.630;4.896;2023-11-18T06:38:45;99854.41;;;6.33;87.45
46942;BME280;32676;52.630;4.896;2023-11-18T06:41:14;99851.09;;;6.28;87.47
46942;BME280;32676;52.630;4.896;2023-11-18T06:43:44;99867.41;;;6.35;87.32
46942;BME280;32676;52.630;4.896;2023-11-18T06:46:23;99869.19;;;6.33;87.09
46942;BME280;32676;52.630;4.896;2023-11-18T06:48:50;99864.91;;;6.32;87.32
46942;BME280;32676;52.630;4.896;2023-11-18T06:51:19;99879.53;;;6.36;87.39
46942;BME280;32676;52.630;4.896;2023-11-18T06:53:48;99877.75;;;6.38;87.25
46942;BME280;32676;52.630;4.896;2023-11-18T06:56:15;99878.66;;;6.37;87.22
46942;BME280;32676;52.630;4.896;2023-11-18T06:58:43;99879.53;;;6.36;87.17
46942;BME280;32676;52.630;4.896;2023-11-18T07:01:12;99857.44;;;6.20;87.20
46942;BME280;32676;52.630;4.896;2023-11-18T07:03:39;99881.28;;;6.37;87.29
46942;BME280;32676;52.630;4.896;2023-11-18T07:06:06;99875.25;;;6.35;87.17
46942;BME280;32676;52.630;4.896;2023-11-18T07:08:34;99870.34;;;6.24;87.48
46942;BME280;32676;52.630;4.896;2023-11-18T07:11:01;99896.81;;;6.40;87.15
46942;BME280;32676;52.630;4.896;2023-11-18T07:13:27;99897.72;;;6.39;87.14
46942;BME280;32676;52.630;4.896;2023-11-18T07:15:55;99883.16;;;6.32;86.98
46942;BME280;32676;52.630;4.896;2023-11-18T07:18:22;99914.09;;;6.44;87.21
46942;BME280;32676;52.630;4.896;2023-11-18T07:20:49;99910.56;;;6.45;87.13
46942;BME280;32676;52.630;4.896;2023-11-18T07:23:16;99908.88;;;6.44;87.04
46942;BME280;32676;52.630;4.896;2023-11-18T07:25:43;99920.16;;;6.45;87.00
46942;BME280;32676;52.630;4.896;2023-11-18T07:28:09;99908.97;;;6.41;87.14
46942;BME280;32676;52.630;4.896;2023-11-18T07:30:36;99907.25;;;6.40;87.04
46942;BME280;32676;52.630;4.896;2023-11-18T07:33:04;99921.00;;;6.45;87.01
46942;BME280;32676;52.630;4.896;2023-11-18T07:35:33;99952.16;;;6.51;86.92
46942;BME280;32676;52.630;4.896;2023-11-18T07:38:02;99976.34;;;6.57;86.93
46942;BME280;32676;52.630;4.896;2023-11-18T07:40:28;99995.34;;;6.62;86.83
46942;BME280;32676;52.630;4.896;2023-11-18T07:42:55;100020.41;;;6.67;86.64
46942;BME280;32676;52.630;4.896;2023-11-18T07:45:22;100033.44;;;6.69;86.61
46942;BME280;32676;52.630;4.896;2023-11-18T07:47:49;100049.97;;;6.69;86.56
46942;BME280;32676;52.630;4.896;2023-11-18T07:50:17;100085.31;;;6.81;86.28
46942;BME280;32676;52.630;4.896;2023-11-18T07:52:45;100095.66;;;6.84;86.07
46942;BME280;32676;52.630;4.896;2023-11-18T07:55:11;100097.34;;;6.85;85.95
46942;BME280;32676;52.630;4.896;2023-11-18T07:57:38;100112.94;;;6.88;85.76
46942;BME280;32676;52.630;4.896;2023-11-18T08:00:06;100131.97;;;6.94;85.65
46942;BME280;32676;52.630;4.896;2023-11-18T08:02:34;100132.84;;;6.92;85.52
46942;BME280;32676;52.630;4.896;2023-11-18T08:05:01;100153.63;;;6.97;85.39
46942;BME280;32676;52.630;4.896;2023-11-18T08:07:30;100152.75;;;6.97;85.41
46942;BME280;32676;52.630;4.896;2023-11-18T08:09:57;100159.72;;;6.96;85.31
46942;BME280;32676;52.630;4.896;2023-11-18T08:12:24;100179.56;;;7.03;85.22
46942;BME280;32676;52.630;4.896;2023-11-18T08:14:50;100204.66;;;7.09;85.11
46942;BME280;32676;52.630;4.896;2023-11-18T08:17:16;100202.16;;;7.06;85.14
46942;BME280;32676;52.630;4.896;2023-11-18T08:19:43;100211.69;;;7.07;84.78
46942;BME280;32676;52.630;4.896;2023-11-18T08:22:11;100227.09;;;7.16;84.88
46942;BME280;32676;52.630;4.896;2023-11-18T08:24:40;100240.97;;;7.18;84.86
46942;BME280;32676;52.630;4.896;2023-11-18T08:27:06;100255.72;;;7.21;84.69
46942;BME280;32676;52.630;4.896;2023-11-18T08:29:33;100258.28;;;7.22;84.71
46942;BME280;32676;52.630;4.896;2023-11-18T08:31:59;100266.94;;;7.24;84.62
46942;BME280;32676;52.630;4.896;2023-11-18T08:34:26;100235.94;;;7.12;84.46
46942;BME280;32676;52.630;4.896;2023-11-18T08:36:53;100254.84;;;7.20;84.41
46942;BME280;32676;52.630;4.896;2023-11-18T08:39:19;100254.84;;;7.20;84.29
46942;BME280;32676;52.630;4.896;2023-11-18T08:41:52;100254.06;;;7.17;84.33
46942;BME280;32676;52.630;4.896;2023-11-18T08:44:18;100257.53;;;7.19;84.41
46942;BME280;32676;52.630;4.896;2023-11-18T08:46:45;100239.53;;;7.08;84.39
46942;BME280;32676;52.630;4.896;2023-11-18T08:49:12;100278.28;;;7.23;84.39
46942;BME280;32676;52.630;4.896;2023-11-18T08:51:38;100267.09;;;7.18;84.34
46942;BME280;32676;52.630;4.896;2023-11-18T08:54:07;100298.13;;;7.30;84.29
46942;BME280;32676;52.630;4.896;2023-11-18T08:56:48;100309.53;;;7.28;84.21
46942;BME280;32676;52.630;4.896;2023-11-18T08:59:18;100329.31;;;7.37;84.19
46942;BME280;32676;52.630;4.896;2023-11-18T09:01:45;100334.53;;;7.37;84.06
46942;BME280;32676;52.630;4.896;2023-11-18T09:04:14;100351.88;;;7.41;84.18
46942;BME280;32676;52.630;4.896;2023-11-18T09:06:40;100360.50;;;7.44;83.99
46942;BME280;32676;52.630;4.896;2023-11-18T09:09:07;100370.91;;;7.46;83.80
46942;BME280;32676;52.630;4.896;2023-11-18T09:11:36;100370.91;;;7.46;83.77
46942;BME280;32676;52.630;4.896;2023-11-18T09:14:06;100362.38;;;7.39;83.70
46942;BME280;32676;52.630;4.896;2023-11-18T09:16:34;100371.78;;;7.45;83.82
46942;BME280;32676;52.630;4.896;2023-11-18T09:19:05;100360.53;;;7.43;83.72
46942;BME280;32676;52.630;4.896;2023-11-18T09:21:31;100360.53;;;7.43;83.71
46942;BME280;32676;52.630;4.896;2023-11-18T09:24:00;100354.50;;;7.41;83.78
46942;BME280;32676;52.630;4.896;2023-11-18T09:26:30;100343.28;;;7.36;83.74
46942;BME280;32676;52.630;4.896;2023-11-18T09:28:56;100363.19;;;7.41;83.70
46942;BME280;32676;52.630;4.896;2023-11-18T09:31:23;100368.34;;;7.44;83.89
46942;BME280;32676;52.630;4.896;2023-11-18T09:33:51;100375.25;;;7.45;83.84
46942;BME280;32676;52.630;4.896;2023-11-18T09:36:19;100373.53;;;7.46;84.16
46942;BME280;32676;52.630;4.896;2023-11-18T09:38:46;100375.22;;;7.47;84.11
46942;BME280;32676;52.630;4.896;2023-11-18T09:41:13;100367.44;;;7.44;84.19
46942;BME280;32676;52.630;4.896;2023-11-18T09:43:42;100362.34;;;7.41;84.51
46942;BME280;32676;52.630;4.896;2023-11-18T09:46:11;100364.03;;;7.42;84.64
46942;BME280;32676;52.630;4.896;2023-11-18T09:48:42;100346.72;;;7.38;84.83
46942;BME280;32676;52.630;4.896;2023-11-18T09:51:14;100347.59;;;7.37;84.96
46942;BME280;32676;52.630;4.896;2023-11-18T09:53:45;100364.03;;;7.42;85.13
46942;BME280;32676;52.630;4.896;2023-11-18T09:56:17;100362.34;;;7.41;85.37
46942;BME280;32676;52.630;4.896;2023-11-18T09:59:01;100348.44;;;7.39;85.30
46942;BME280;32676;52.630;4.896;2023-11-18T10:01:34;100350.22;;;7.37;85.35
46942;BME280;32676;52.630;4.896;2023-11-18T10:04:04;100335.53;;;7.33;85.47
46942;BME280;32676;52.630;4.896;2023-11-18T10:06:34;100341.56;;;7.35;85.61
46942;BME280;32676;52.630;4.896;2023-11-18T10:09:02;100354.56;;;7.38;85.62
46942;BME280;32676;52.630;4.896;2023-11-18T10:11:41;100361.56;;;7.37;85.72
46942;BME280;32676;52.630;4.896;2023-11-18T10:14:07;100346.78;;;7.35;85.75
46942;BME280;32676;52.630;4.896;2023-11-18T10:16:35;100355.44;;;7.37;85.94
46942;BME280;32676;52.630;4.896;2023-11-18T10:19:04;100356.31;;;7.37;85.97
46942;BME280;32676;52.630;4.896;2023-11-18T10:21:35;100332.13;;;7.29;85.98
46942;BME280;32676;52.630;4.896;2023-11-18T10:24:06;100345.16;;;7.30;86.01
46942;BME280;32676;52.630;4.896;2023-11-18T10:26:40;100357.19;;;7.38;86.18
46942;BME280;32676;52.630;4.896;2023-11-18T10:29:06;100347.72;;;7.34;86.46
46942;BME280;32676;52.630;4.896;2023-11-18T10:31:34;100357.25;;;7.35;86.27
46942;BME280;32676;52.630;4.896;2023-11-18T10:34:01;100345.09;;;7.34;86.38
46942;BME280;32676;52.630;4.896;2023-11-18T10:36:29;100352.03;;;7.35;86.50
46942;BME280;32676;52.630;4.896;2023-11-18T10:39:01;100358.06;;;7.37;86.70
46942;BME280;32676;52.630;4.896;2023-11-18T10:41:29;100357.19;;;7.38;86.69
46942;BME280;32676;52.630;4.896;2023-11-18T10:44:05;100363.25;;;7.38;86.88
46942;BME280;32676;52.630;4.896;2023-11-18T10:46:32;100376.28;;;7.40;86.88
46942;BME280;32676;52.630;4.896;2023-11-18T10:48:58;100369.34;;;7.39;86.83
46942;BME280;32676;52.630;4.896;2023-11-18T10:51:25;100369.34;;;7.39;87.02
46942;BME280;32676;52.630;4.896;2023-11-18T10:53:54;100383.25;;;7.41;87.03
46942;BME280;32676;52.630;4.896;2023-11-18T10:56:25;100371.22;;;7.34;87.05
46942;BME280;32676;52.630;4.896;2023-11-18T10:58:55;100381.50;;;7.40;87.02
46942;BME280;32676;52.630;4.896;2023-11-18T11:01:28;100378.00;;;7.41;87.12
46942;BME280;32676;52.630;4.896;2023-11-18T11:03:57;100379.81;;;7.39;87.31
46942;BME280;32676;52.630;4.896;2023-11-18T11:06:24;100380.63;;;7.41;87.19
46942;BME280;32676;52.630;4.896;2023-11-18T11:08:51;100389.28;;;7.43;87.10
46942;BME280;32676;52.630;4.896;2023-11-18T11:11:20;100391.91;;;7.43;87.41
46942;BME280;32676;52.630;4.896;2023-11-18T11:13:50;100402.28;;;7.46;87.46
46942;BME280;32676;52.630;4.896;2023-11-18T11:16:23;100401.41;;;7.45;87.54
46942;BME280;32676;52.630;4.896;2023-11-18T11:18:55;100404.81;;;7.47;87.69
46942;BME280;32676;52.630;4.896;2023-11-18T11:21:36;100409.22;;;7.47;87.79
46942;BME280;32676;52.630;4.896;2023-11-18T11:24:11;100422.22;;;7.50;87.66
46942;BME280;32676;52.630;4.896;2023-11-18T11:26:53;100419.59;;;7.50;87.80
46942;BME280;32676;52.630;4.896;2023-11-18T11:29:30;100437.06;;;7.48;87.74
46942;BME280;32676;52.630;4.896;2023-11-18T11:32:11;100447.38;;;7.54;87.92
46942;BME280;32676;52.630;4.896;2023-11-18T11:34:40;100456.84;;;7.58;87.95
46942;BME280;32676;52.630;4.896;2023-11-18T11:37:11;100459.53;;;7.57;87.97
46942;BME280;32676;52.630;4.896;2023-11-18T11:39:40;100452.53;;;7.57;87.93
46942;BME280;32676;52.630;4.896;2023-11-18T11:42:13;100480.31;;;7.61;87.93
46942;BME280;32676;52.630;4.896;2023-11-18T11:44:44;100470.81;;;7.57;87.99
46942;BME280;32676;52.630;4.896;2023-11-18T11:47:12;100494.19;;;7.63;88.02
46942;BME280;32676;52.630;4.896;2023-11-18T11:49:47;100499.34;;;7.66;88.12
46942;BME280;32676;52.630;4.896;2023-11-18T11:52:21;100512.41;;;7.68;88.16
46942;BME280;32676;52.630;4.896;2023-11-18T11:54:59;100513.25;;;7.68;88.10
46942;BME280;32676;52.630;4.896;2023-11-18T11:57:29;100510.63;;;7.68;88.19
46942;BME280;32676;52.630;4.896;2023-11-18T11:59:57;100501.97;;;7.66;88.09
46942;BME280;32676;52.630;4.896;2023-11-18T12:02:26;100498.56;;;7.63;88.25
46942;BME280;32676;52.630;4.896;2023-11-18T12:04:55;100492.50;;;7.62;88.20
46942;BME280;32676;52.630;4.896;2023-11-18T12:07:23;100504.66;;;7.63;88.36
46942;BME280;32676;52.630;4.896;2023-11-18T12:09:55;100527.97;;;7.71;88.61
46942;BME280;32676;52.630;4.896;2023-11-18T12:12:24;100528.88;;;7.72;88.54
46942;BME280;32676;52.630;4.896;2023-11-18T12:14:52;100549.63;;;7.78;88.58
46942;BME280;32676;52.630;4.896;2023-11-18T12:17:23;100570.38;;;7.84;88.62
46942;BME280;32676;52.630;4.896;2023-11-18T12:19:54;100584.31;;;7.86;88.65
46942;BME280;32676;52.630;4.896;2023-11-18T12:22:24;100609.44;;;7.92;88.65
46942;BME280;32676;52.630;4.896;2023-11-18T12:28:08;100627.63;;;7.96;88.68
46942;BME280;32676;52.630;4.896;2023-11-18T12:30:44;100631.16;;;7.95;88.55
46942;BME280;32676;52.630;4.896;2023-11-18T12:34:02;100634.59;;;7.97;88.48
46942;BME280;32676;52.630;4.896;2023-11-18T12:37:11;100632.88;;;7.96;88.65
46942;BME280;32676;52.630;4.896;2023-11-18T12:40:16;100643.28;;;7.99;88.65
46942;BME280;32676;52.630;4.896;2023-11-18T12:42:58;100653.66;;;8.02;88.71
46942;BME280;32676;52.630;4.896;2023-11-18T12:48:36;100633.75;;;7.97;89.03
46942;BME280;32676;52.630;4.896;2023-11-18T12:51:09;100619.00;;;7.93;88.84
46942;BME280;32676;52.630;4.896;2023-11-18T12:53:46;100627.72;;;7.93;88.91
46942;BME280;32676;52.630;4.896;2023-11-18T12:56:14;100635.47;;;7.96;88.97
46942;BME280;32676;52.630;4.896;2023-11-18T12:58:41;100641.53;;;7.98;89.02
46942;BME280;32676;52.630;4.896;2023-11-18T13:01:08;100647.66;;;7.99;89.13
46942;BME280;32676;52.630;4.896;2023-11-18T13:03:40;100665.84;;;8.03;89.17
46942;BME280;32676;52.630;4.896;2023-11-18T13:06:08;100673.66;;;8.05;89.24
46942;BME280;32676;52.630;4.896;2023-11-18T13:08:36;100687.56;;;8.07;89.15
46942;BME280;32676;52.630;4.896;2023-11-18T13:11:03;100704.88;;;8.13;89.35
46942;BME280;32676;52.630;4.896;2023-11-18T13:13:30;100720.50;;;8.16;89.22
46942;BME280;32676;52.630;4.896;2023-11-18T13:15:57;100719.63;;;8.17;89.20
46942;BME280;32676;52.630;4.896;2023-11-18T13:18:24;100734.38;;;8.19;89.31
46942;BME280;32676;52.630;4.896;2023-11-18T13:20:56;100751.72;;;8.23;89.34